sensor_id;sensor_type;location;lat;lon;timestamp;pressure;altitude;pressure_sealevel;temperature;humidity
4590;BME280;2307;48.448;9.216;2023-07-22T00:00:41;95400.69;;;15.95;100.00
4590;BME280;2307;48.448;9.216;2023-07-22T00:03:07;95394.31;;;15.81;100.00
4590;BME280;2307;48.448;9.216;2023-07-22T00:05:34;95391.94;;;15.84;100.00
4590;BME280;2307;48.448;9.216;2023-07-22T00:08:00;95392.19;;;15.83;100.00
4590;BME280;2307;48.448;9.216;2023-07-22T00:10:27;95389.25;;;15.89;100.00
4590;BME280;2307;48.448;9.216;2023-07-22T00:12:53;95400.19;;;15.98;100.00
4590;BME280;2307;48.448;9.216;2023-07-22T00:15:21;95397.53;;;15.88;100.00
4590;BME280;2307;48.448;9.216;2023-07-22T00:17:49;95397.53;;;15.88;100.00
4590;BME280;2307;48.448;9.216;2023-07-22T00:20:15;95395.13;;;15.81;100.00
4590;BME280;2307;48.448;9.216;2023-07-22T00:22:42;95398.03;;;15.90;100.00
4590;BME280;2307;48.448;9.216;2023-07-22T00:25:09;95406.31;;;15.88;100.00
4590;BME280;2307;48.448;9.216;2023-07-22T00:27:36;95398.56;;;16.07;100.00
4590;BME280;2307;48.448;9.216;2023-07-22T00:30:03;95402.03;;;15.98;100.00
4590;BME280;2307;48.448;9.216;2023-07-22T00:32:31;95403.34;;;16.05;100.00
4590;BME280;2307;48.448;9.216;2023-07-22T00:34:58;95401.75;;;16.09;100.00
4590;BME280;2307;48.448;9.216;2023-07-22T00:37:24;95393.22;;;16.22;100.00
4590;BME280;2307;48.448;9.216;2023-07-22T00:39:51;95397.22;;;16.20;100.00
4590;BME280;2307;48.448;9.216;2023-07-22T00:42:17;95396.66;;;16.18;100.00
4590;BME280;2307;48.448;9.216;2023-07-22T00:44:44;95389.47;;;16.23;100.00
4590;BME280;2307;48.448;9.216;2023-07-22T00:47:10;95389.19;;;16.25;100.00
4590;BME280;2307;48.448;9.216;2023-07-22T00:49:38;95390.81;;;16.16;100.00
4590;BME280;2307;48.448;9.216;2023-07-22T00:52:05;95386.56;;;16.20;100.00
4590;BME280;2307;48.448;9.216;2023-07-22T00:54:31;95391.34;;;16.13;100.00
4590;BME280;2307;48.448;9.216;2023-07-22T00:56:58;95382.81;;;16.21;100.00
4590;BME280;2307;48.448;9.216;2023-07-22T00:59:24;95381.47;;;16.18;100.00
4590;BME280;2307;48.448;9.216;2023-07-22T01:01:51;95379.59;;;16.24;100.00
4590;BME280;2307;48.448;9.216;2023-07-22T01:04:19;95378.25;;;16.31;100.00
4590;BME280;2307;48.448;9.216;2023-07-22T01:06:48;95379.31;;;16.35;100.00
4590;BME280;2307;48.448;9.216;2023-07-22T01:09:15;95373.72;;;16.32;100.00
4590;BME280;2307;48.448;9.216;2023-07-22T01:11:42;95379.88;;;16.17;100.00
4590;BME280;2307;48.448;9.216;2023-07-22T01:14:09;95382.31;;;16.14;100.00
4590;BME280;2307;48.448;9.216;2023-07-22T01:16:35;95369.50;;;16.06;100.00
4590;BME280;2307;48.448;9.216;2023-07-22T01:19:02;95367.41;;;15.98;100.00
4590;BME280;2307;48.448;9.216;2023-07-22T01:21:29;95373.00;;;16.01;100.00
4590;BME280;2307;48.448;9.216;2023-07-22T01:23:58;95368.47;;;15.76;100.00
4590;BME280;2307;48.448;9.216;2023-07-22T01:26:25;95371.69;;;15.73;100.00
4590;BME280;2307;48.448;9.216;2023-07-22T01:28:51;95363.69;;;15.78;100.00
4590;BME280;2307;48.448;9.216;2023-07-22T01:31:27;95367.94;;;15.84;100.00
4590;BME280;2307;48.448;9.216;2023-07-22T01:33:53;95360.75;;;15.90;100.00
4590;BME280;2307;48.448;9.216;2023-07-22T01:36:20;95360.22;;;15.88;100.00
4590;BME280;2307;48.448;9.216;2023-07-22T01:38:46;95356.75;;;15.82;100.00
4590;BME280;2307;48.448;9.216;2023-07-22T01:41:14;95357.31;;;15.74;100.00
4590;BME280;2307;48.448;9.216;2023-07-22T01:43:40;95354.91;;;15.78;100.00
4590;BME280;2307;48.448;9.216;2023-07-22T01:46:07;95355.69;;;15.73;100.00
4590;BME280;2307;48.448;9.216;2023-07-22T01:48:33;95350.91;;;15.70;100.00
4590;BME280;2307;48.448;9.216;2023-07-22T01:50:59;95357.84;;;15.71;100.00
4590;BME280;2307;48.448;9.216;2023-07-22T01:53:26;95349.59;;;15.53;100.00
4590;BME280;2307;48.448;9.216;2023-07-22T01:55:52;95348.50;;;15.64;100.00
4590;BME280;2307;48.448;9.216;2023-07-22T01:58:21;95359.72;;;15.76;100.00
4590;BME280;2307;48.448;9.216;2023-07-22T02:00:49;95353.84;;;15.79;100.00
4590;BME280;2307;48.448;9.216;2023-07-22T02:03:15;95358.63;;;15.82;100.00
4590;BME280;2307;48.448;9.216;2023-07-22T02:05:41;95362.09;;;15.77;100.00
4590;BME280;2307;48.448;9.216;2023-07-22T02:08:08;95358.91;;;15.70;100.00
4590;BME280;2307;48.448;9.216;2023-07-22T02:10:35;95364.50;;;15.69;100.00
4590;BME280;2307;48.448;9.216;2023-07-22T02:13:01;95360.50;;;15.71;100.00
4590;BME280;2307;48.448;9.216;2023-07-22T02:15:31;95362.91;;;15.68;100.00
4590;BME280;2307;48.448;9.216;2023-07-22T02:17:57;95363.19;;;15.56;100.00
4590;BME280;2307;48.448;9.216;2023-07-22T02:20:23;95365.84;;;15.56;100.00
4590;BME280;2307;48.448;9.216;2023-07-22T02:22:53;95370.84;;;15.42;100.00
4590;BME280;2307;48.448;9.216;2023-07-22T02:25:20;95377.56;;;15.50;100.00
4590;BME280;2307;48.448;9.216;2023-07-22T02:27:47;95382.31;;;15.43;100.00
4590;BME280;2307;48.448;9.216;2023-07-22T02:30:13;95370.03;;;15.42;100.00
4590;BME280;2307;48.448;9.216;2023-07-22T02:32:41;95379.91;;;15.31;100.00
4590;BME280;2307;48.448;9.216;2023-07-22T02:35:08;95377.50;;;15.30;100.00
4590;BME280;2307;48.448;9.216;2023-07-22T02:37:36;95373.75;;;15.21;100.00
4590;BME280;2307;48.448;9.216;2023-07-22T02:40:03;95375.88;;;15.24;100.00
4590;BME280;2307;48.448;9.216;2023-07-22T02:42:33;95377.47;;;15.20;100.00
4590;BME280;2307;48.448;9.216;2023-07-22T02:44:59;95375.88;;;15.14;100.00
4590;BME280;2307;48.448;9.216;2023-07-22T02:47:25;95379.84;;;15.06;100.00
4590;BME280;2307;48.448;9.216;2023-07-22T02:49:53;95374.81;;;15.15;100.00
4590;BME280;2307;48.448;9.216;2023-07-22T02:52:19;95378.53;;;15.14;100.00
4590;BME280;2307;48.448;9.216;2023-07-22T02:57:28;95389.16;;;15.14;100.00
4590;BME280;2307;48.448;9.216;2023-07-22T02:59:54;95386.78;;;15.12;100.00
4590;BME280;2307;48.448;9.216;2023-07-22T03:02:20;95381.19;;;15.14;100.00
4590;BME280;2307;48.448;9.216;2023-07-22T03:04:48;95378.53;;;15.14;100.00
4590;BME280;2307;48.448;9.216;2023-07-22T03:07:15;95374.25;;;15.08;100.00
4590;BME280;2307;48.448;9.216;2023-07-22T03:09:42;95373.22;;;15.09;100.00
4590;BME280;2307;48.448;9.216;2023-07-22T03:12:08;95375.84;;;14.99;100.00
4590;BME280;2307;48.448;9.216;2023-07-22T03:14:34;95374.25;;;15.13;100.00
4590;BME280;2307;48.448;9.216;2023-07-22T03:17:02;95368.63;;;14.94;100.00
4590;BME280;2307;48.448;9.216;2023-07-22T03:19:28;95371.03;;;14.96;100.00
4590;BME280;2307;48.448;9.216;2023-07-22T03:21:55;95371.28;;;14.89;100.00
4590;BME280;2307;48.448;9.216;2023-07-22T03:24:22;95372.63;;;14.86;100.00
4590;BME280;2307;48.448;9.216;2023-07-22T03:26:50;95377.06;;;14.66;100.00
4590;BME280;2307;48.448;9.216;2023-07-22T03:29:16;95369.34;;;14.69;100.00
4590;BME280;2307;48.448;9.216;2023-07-22T03:31:42;95363.56;;;14.77;100.00
4590;BME280;2307;48.448;9.216;2023-07-22T03:34:09;95364.09;;;14.84;100.00
4590;BME280;2307;48.448;9.216;2023-07-22T03:36:35;95362.78;;;14.92;100.00
4590;BME280;2307;48.448;9.216;2023-07-22T03:39:02;95360.69;;;14.99;100.00
4590;BME280;2307;48.448;9.216;2023-07-22T03:41:30;95363.91;;;15.06;100.00
4590;BME280;2307;48.448;9.216;2023-07-22T03:43:58;95360.44;;;15.26;100.00
4590;BME280;2307;48.448;9.216;2023-07-22T03:46:24;95362.31;;;15.25;100.00
4590;BME280;2307;48.448;9.216;2023-07-22T03:48:50;95361.78;;;15.23;100.00
4590;BME280;2307;48.448;9.216;2023-07-22T03:51:17;95354.06;;;15.22;100.00
4590;BME280;2307;48.448;9.216;2023-07-22T03:53:43;95355.13;;;15.26;100.00
4590;BME280;2307;48.448;9.216;2023-07-22T03:56:10;95360.97;;;15.23;100.00
4590;BME280;2307;48.448;9.216;2023-07-22T03:58:37;95360.44;;;15.16;100.00
4590;BME280;2307;48.448;9.216;2023-07-22T04:01:04;95356.16;;;15.00;100.00
4590;BME280;2307;48.448;9.216;2023-07-22T04:03:30;95362.56;;;15.14;100.00
4590;BME280;2307;48.448;9.216;2023-07-22T04:05:57;95362.59;;;15.24;100.00
4590;BME280;2307;48.448;9.216;2023-07-22T04:08:23;95358.81;;;15.00;100.00
4590;BME280;2307;48.448;9.216;2023-07-22T04:10:52;95359.59;;;15.00;100.00
4590;BME280;2307;48.448;9.216;2023-07-22T04:13:19;95363.63;;;15.08;100.00
4590;BME280;2307;48.448;9.216;2023-07-22T04:15:46;95354.34;;;15.15;100.00
4590;BME280;2307;48.448;9.216;2023-07-22T04:18:14;95358.63;;;15.31;100.00
4590;BME280;2307;48.448;9.216;2023-07-22T04:20:40;95359.38;;;15.32;100.00
4590;BME280;2307;48.448;9.216;2023-07-22T04:23:07;95355.16;;;15.41;100.00
4590;BME280;2307;48.448;9.216;2023-07-22T04:25:38;95361.00;;;15.43;100.00
4590;BME280;2307;48.448;9.216;2023-07-22T04:28:04;95349.81;;;15.46;100.00
4590;BME280;2307;48.448;9.216;2023-07-22T04:30:30;95363.69;;;15.48;100.00
4590;BME280;2307;48.448;9.216;2023-07-22T04:32:58;95349.84;;;15.51;100.00
4590;BME280;2307;48.448;9.216;2023-07-22T04:35:25;95353.03;;;15.48;100.00
4590;BME280;2307;48.448;9.216;2023-07-22T04:37:51;95354.91;;;15.53;100.00
4590;BME280;2307;48.448;9.216;2023-07-22T04:40:18;95355.16;;;15.46;100.00
4590;BME280;2307;48.448;9.216;2023-07-22T04:42:45;95356.75;;;15.47;100.00
4590;BME280;2307;48.448;9.216;2023-07-22T04:45:11;95358.66;;;15.57;100.00
4590;BME280;2307;48.448;9.216;2023-07-22T04:47:38;95355.16;;;15.46;100.00
4590;BME280;2307;48.448;9.216;2023-07-22T04:50:07;95363.16;;;15.41;100.00
4590;BME280;2307;48.448;9.216;2023-07-22T04:52:34;95362.06;;;15.42;100.00
4590;BME280;2307;48.448;9.216;2023-07-22T04:55:01;95365.78;;;15.46;100.00
4590;BME280;2307;48.448;9.216;2023-07-22T04:57:33;95367.41;;;15.57;100.00
4590;BME280;2307;48.448;9.216;2023-07-22T05:00:00;95372.22;;;15.60;100.00
4590;BME280;2307;48.448;9.216;2023-07-22T05:02:28;95373.81;;;15.51;100.00
4590;BME280;2307;48.448;9.216;2023-07-22T05:04:55;95374.34;;;15.58;100.00
4590;BME280;2307;48.448;9.216;2023-07-22T05:07:23;95377.28;;;15.57;100.00
4590;BME280;2307;48.448;9.216;2023-07-22T05:09:49;95374.59;;;15.47;100.00
4590;BME280;2307;48.448;9.216;2023-07-22T05:12:16;95375.94;;;15.44;100.00
4590;BME280;2307;48.448;9.216;2023-07-22T05:14:42;95369.03;;;15.53;100.00
4590;BME280;2307;48.448;9.216;2023-07-22T05:17:09;95371.13;;;15.46;100.00
4590;BME280;2307;48.448;9.216;2023-07-22T05:19:35;95379.34;;;15.44;100.00
4590;BME280;2307;48.448;9.216;2023-07-22T05:22:02;95379.94;;;15.57;100.00
4590;BME280;2307;48.448;9.216;2023-07-22T05:24:30;95386.59;;;15.59;100.00
4590;BME280;2307;48.448;9.216;2023-07-22T05:26:56;95393.50;;;15.55;100.00
4590;BME280;2307;48.448;9.216;2023-07-22T05:29:22;95403.63;;;15.53;100.00
4590;BME280;2307;48.448;9.216;2023-07-22T05:31:49;95400.97;;;15.58;100.00
4590;BME280;2307;48.448;9.216;2023-07-22T05:34:15;95398.31;;;15.53;100.00
4590;BME280;2307;48.448;9.216;2023-07-22T05:36:42;95394.03;;;15.57;100.00
4590;BME280;2307;48.448;9.216;2023-07-22T05:39:08;95392.19;;;15.53;100.00
4590;BME280;2307;48.448;9.216;2023-07-22T05:41:36;95405.22;;;15.64;100.00
4590;BME280;2307;48.448;9.216;2023-07-22T05:44:02;95392.44;;;15.76;100.00
4590;BME280;2307;48.448;9.216;2023-07-22T05:46:29;95397.78;;;15.81;100.00
4590;BME280;2307;48.448;9.216;2023-07-22T05:48:56;95399.91;;;15.84;100.00
4590;BME280;2307;48.448;9.216;2023-07-22T05:51:22;95402.03;;;15.87;100.00
4590;BME280;2307;48.448;9.216;2023-07-22T05:53:48;95406.31;;;15.78;100.00
4590;BME280;2307;48.448;9.216;2023-07-22T05:56:15;95407.63;;;15.86;100.00
4590;BME280;2307;48.448;9.216;2023-07-22T05:58:42;95408.41;;;15.76;100.00
4590;BME280;2307;48.448;9.216;2023-07-22T06:01:09;95412.69;;;15.72;100.00
4590;BME280;2307;48.448;9.216;2023-07-22T06:03:36;95415.91;;;15.84;100.00
4590;BME280;2307;48.448;9.216;2023-07-22T06:06:03;95421.75;;;15.81;100.00
4590;BME280;2307;48.448;9.216;2023-07-22T06:08:29;95414.81;;;15.80;100.00
4590;BME280;2307;48.448;9.216;2023-07-22T06:10:56;95413.47;;;16.03;100.00
4590;BME280;2307;48.448;9.216;2023-07-22T06:13:22;95419.06;;;16.07;100.00
4590;BME280;2307;48.448;9.216;2023-07-22T06:15:50;95422.28;;;16.14;100.00
4590;BME280;2307;48.448;9.216;2023-07-22T06:18:16;95420.91;;;16.21;100.00
4590;BME280;2307;48.448;9.216;2023-07-22T06:20:43;95429.97;;;16.30;100.00
4590;BME280;2307;48.448;9.216;2023-07-22T06:23:10;95435.00;;;16.37;100.00
4590;BME280;2307;48.448;9.216;2023-07-22T06:25:36;95431.28;;;16.38;100.00
4590;BME280;2307;48.448;9.216;2023-07-22T06:28:02;95440.59;;;16.40;100.00
4590;BME280;2307;48.448;9.216;2023-07-22T06:30:29;95439.00;;;16.44;100.00
4590;BME280;2307;48.448;9.216;2023-07-22T06:32:57;95440.06;;;16.48;100.00
4590;BME280;2307;48.448;9.216;2023-07-22T06:35:23;95446.72;;;16.51;100.00
4590;BME280;2307;48.448;9.216;2023-07-22T06:37:49;95449.91;;;16.53;100.00
4590;BME280;2307;48.448;9.216;2023-07-22T06:40:16;95442.50;;;16.55;100.00
4590;BME280;2307;48.448;9.216;2023-07-22T06:42:42;95441.91;;;16.63;100.00
4590;BME280;2307;48.448;9.216;2023-07-22T06:45:08;95441.91;;;16.68;100.00
4590;BME280;2307;48.448;9.216;2023-07-22T06:47:35;95446.13;;;16.84;100.00
4590;BME280;2307;48.448;9.216;2023-07-22T06:50:03;95436.72;;;16.97;100.00
4590;BME280;2307;48.448;9.216;2023-07-22T06:52:30;95452.44;;;17.09;100.00
4590;BME280;2307;48.448;9.216;2023-07-22T06:54:56;95448.59;;;17.30;100.00
4590;BME280;2307;48.448;9.216;2023-07-22T06:57:23;95454.94;;;17.44;100.00
4590;BME280;2307;48.448;9.216;2023-07-22T06:59:51;95439.38;;;17.51;100.00
4590;BME280;2307;48.448;9.216;2023-07-22T07:02:17;95448.41;;;17.65;97.06
4590;BME280;2307;48.448;9.216;2023-07-22T07:04:43;95447.88;;;17.63;91.05
4590;BME280;2307;48.448;9.216;2023-07-22T07:07:11;95451.91;;;17.61;91.81
4590;BME280;2307;48.448;9.216;2023-07-22T07:09:38;95457.47;;;17.69;92.71
4590;BME280;2307;48.448;9.216;2023-07-22T07:12:05;95458.00;;;17.71;94.00
4590;BME280;2307;48.448;9.216;2023-07-22T07:14:32;95454.88;;;17.93;91.16
4590;BME280;2307;48.448;9.216;2023-07-22T07:16:59;95451.19;;;18.18;82.56
4590;BME280;2307;48.448;9.216;2023-07-22T07:19:25;95448.41;;;18.33;82.26
4590;BME280;2307;48.448;9.216;2023-07-22T07:21:52;95454.16;;;18.50;76.27
4590;BME280;2307;48.448;9.216;2023-07-22T07:24:19;95456.41;;;18.67;69.68
4590;BME280;2307;48.448;9.216;2023-07-22T07:26:46;95455.03;;;18.69;66.33
4590;BME280;2307;48.448;9.216;2023-07-22T07:29:12;95452.75;;;18.81;69.62
4590;BME280;2307;48.448;9.216;2023-07-22T07:31:39;95455.31;;;18.91;66.35
4590;BME280;2307;48.448;9.216;2023-07-22T07:34:05;95463.84;;;18.93;65.72
4590;BME280;2307;48.448;9.216;2023-07-22T07:36:32;95457.88;;;19.01;66.16
4590;BME280;2307;48.448;9.216;2023-07-22T07:38:58;95460.47;;;19.06;63.11
4590;BME280;2307;48.448;9.216;2023-07-22T07:41:28;95460.94;;;19.14;65.60
4590;BME280;2307;48.448;9.216;2023-07-22T07:43:54;95453.38;;;19.21;65.58
4590;BME280;2307;48.448;9.216;2023-07-22T07:46:21;95466.97;;;19.24;65.51
4590;BME280;2307;48.448;9.216;2023-07-22T07:48:49;95463.53;;;19.19;62.16
4590;BME280;2307;48.448;9.216;2023-07-22T07:51:16;95461.41;;;19.21;64.27
4590;BME280;2307;48.448;9.216;2023-07-22T07:53:43;95464.00;;;19.26;62.79
4590;BME280;2307;48.448;9.216;2023-07-22T07:56:10;95466.56;;;19.36;65.81
4590;BME280;2307;48.448;9.216;2023-07-22T07:58:38;95460.56;;;19.44;65.05
4590;BME280;2307;48.448;9.216;2023-07-22T08:01:04;95462.28;;;19.35;62.25
4590;BME280;2307;48.448;9.216;2023-07-22T08:03:31;95474.94;;;19.53;63.88
4590;BME280;2307;48.448;9.216;2023-07-22T08:05:58;95467.47;;;19.50;63.18
4590;BME280;2307;48.448;9.216;2023-07-22T08:08:24;95466.59;;;19.54;62.29
4590;BME280;2307;48.448;9.216;2023-07-22T08:13:35;95463.34;;;19.57;59.22
4590;BME280;2307;48.448;9.216;2023-07-22T08:16:03;95463.56;;;19.61;57.18
4590;BME280;2307;48.448;9.216;2023-07-22T08:18:30;95468.06;;;19.66;60.83
4590;BME280;2307;48.448;9.216;2023-07-22T08:20:57;95469.06;;;19.70;59.82
4590;BME280;2307;48.448;9.216;2023-07-22T08:23:23;95461.75;;;19.75;57.94
4590;BME280;2307;48.448;9.216;2023-07-22T08:25:50;95472.19;;;19.77;59.84
4590;BME280;2307;48.448;9.216;2023-07-22T08:28:16;95471.69;;;19.75;55.55
4590;BME280;2307;48.448;9.216;2023-07-22T08:30:43;95461.66;;;19.80;54.28
4590;BME280;2307;48.448;9.216;2023-07-22T08:33:11;95467.47;;;19.87;56.04
4590;BME280;2307;48.448;9.216;2023-07-22T08:35:38;95464.22;;;19.90;56.91
4590;BME280;2307;48.448;9.216;2023-07-22T08:38:05;95458.03;;;19.90;57.74
4590;BME280;2307;48.448;9.216;2023-07-22T08:40:34;95466.22;;;19.80;56.72
4590;BME280;2307;48.448;9.216;2023-07-22T08:43:01;95460.34;;;19.96;59.76
4590;BME280;2307;48.448;9.216;2023-07-22T08:45:29;95460.28;;;20.01;56.56
4590;BME280;2307;48.448;9.216;2023-07-22T08:47:58;95468.25;;;20.06;58.45
4590;BME280;2307;48.448;9.216;2023-07-22T08:50:30;95468.09;;;19.98;57.07
4590;BME280;2307;48.448;9.216;2023-07-22T08:52:56;95456.44;;;19.89;55.39
4590;BME280;2307;48.448;9.216;2023-07-22T08:55:24;95466.38;;;19.88;53.00
4590;BME280;2307;48.448;9.216;2023-07-22T08:57:50;95460.81;;;19.85;49.70
4590;BME280;2307;48.448;9.216;2023-07-22T09:00:17;95462.47;;;19.81;49.13
4590;BME280;2307;48.448;9.216;2023-07-22T09:02:44;95463.63;;;19.93;49.72
4590;BME280;2307;48.448;9.216;2023-07-22T09:05:11;95456.72;;;20.06;49.30
4590;BME280;2307;48.448;9.216;2023-07-22T09:07:39;95456.19;;;20.23;50.61
4590;BME280;2307;48.448;9.216;2023-07-22T09:10:07;95457.63;;;20.34;50.11
4590;BME280;2307;48.448;9.216;2023-07-22T09:12:34;95447.16;;;20.51;50.22
4590;BME280;2307;48.448;9.216;2023-07-22T09:15:05;95454.81;;;20.71;50.40
4590;BME280;2307;48.448;9.216;2023-07-22T09:17:32;95456.81;;;20.79;47.92
4590;BME280;2307;48.448;9.216;2023-07-22T09:19:59;95451.75;;;20.64;48.43
4590;BME280;2307;48.448;9.216;2023-07-22T09:22:25;95453.13;;;20.75;49.99
4590;BME280;2307;48.448;9.216;2023-07-22T09:24:54;95454.53;;;20.86;47.60
4590;BME280;2307;48.448;9.216;2023-07-22T09:27:38;95455.53;;;20.90;46.26
4590;BME280;2307;48.448;9.216;2023-07-22T09:30:04;95447.19;;;20.92;46.39
4590;BME280;2307;48.448;9.216;2023-07-22T09:32:45;95448.88;;;21.01;47.08
4590;BME280;2307;48.448;9.216;2023-07-22T09:35:12;95451.34;;;20.84;47.30
4590;BME280;2307;48.448;9.216;2023-07-22T09:37:38;95446.88;;;20.93;46.49
4590;BME280;2307;48.448;9.216;2023-07-22T09:40:14;95451.75;;;20.91;48.15
4590;BME280;2307;48.448;9.216;2023-07-22T09:42:43;95450.94;;;20.77;47.68
4590;BME280;2307;48.448;9.216;2023-07-22T09:45:09;95447.09;;;20.83;48.39
4590;BME280;2307;48.448;9.216;2023-07-22T09:47:39;95445.00;;;20.80;49.15
4590;BME280;2307;48.448;9.216;2023-07-22T09:50:06;95455.53;;;20.90;47.45
4590;BME280;2307;48.448;9.216;2023-07-22T09:52:32;95456.13;;;20.87;46.45
4590;BME280;2307;48.448;9.216;2023-07-22T09:54:59;95450.94;;;20.77;46.43
4590;BME280;2307;48.448;9.216;2023-07-22T09:57:26;95439.81;;;20.97;45.40
4590;BME280;2307;48.448;9.216;2023-07-22T09:59:53;95446.78;;;21.26;47.18
4590;BME280;2307;48.448;9.216;2023-07-22T10:02:20;95441.69;;;21.38;45.94
4590;BME280;2307;48.448;9.216;2023-07-22T10:04:48;95441.63;;;21.29;46.50
4590;BME280;2307;48.448;9.216;2023-07-22T10:07:16;95446.66;;;21.44;46.32
4590;BME280;2307;48.448;9.216;2023-07-22T10:09:44;95449.06;;;21.46;46.26
4590;BME280;2307;48.448;9.216;2023-07-22T10:12:12;95445.97;;;21.52;48.27
4590;BME280;2307;48.448;9.216;2023-07-22T10:14:41;95438.19;;;21.51;47.54
4590;BME280;2307;48.448;9.216;2023-07-22T10:17:08;95445.97;;;21.52;49.31
4590;BME280;2307;48.448;9.216;2023-07-22T10:19:35;95439.63;;;21.35;46.67
4590;BME280;2307;48.448;9.216;2023-07-22T10:22:02;95446.56;;;21.49;47.45
4590;BME280;2307;48.448;9.216;2023-07-22T10:24:29;95444.78;;;21.04;48.59
4590;BME280;2307;48.448;9.216;2023-07-22T10:26:57;95450.88;;;20.96;48.97
4590;BME280;2307;48.448;9.216;2023-07-22T10:29:23;95436.72;;;21.04;50.40
4590;BME280;2307;48.448;9.216;2023-07-22T10:31:53;95436.44;;;21.33;49.78
4590;BME280;2307;48.448;9.216;2023-07-22T10:34:20;95438.56;;;21.58;49.33
4590;BME280;2307;48.448;9.216;2023-07-22T10:36:47;95432.97;;;21.68;47.36
4590;BME280;2307;48.448;9.216;2023-07-22T10:39:24;95427.53;;;21.95;47.01
4590;BME280;2307;48.448;9.216;2023-07-22T10:41:50;95430.81;;;22.14;46.75
4590;BME280;2307;48.448;9.216;2023-07-22T10:44:25;95423.09;;;22.44;45.97
4590;BME280;2307;48.448;9.216;2023-07-22T10:46:57;95423.66;;;22.63;46.08
4590;BME280;2307;48.448;9.216;2023-07-22T10:49:24;95425.53;;;22.85;44.93
4590;BME280;2307;48.448;9.216;2023-07-22T10:51:56;95418.09;;;22.90;44.25
4590;BME280;2307;48.448;9.216;2023-07-22T10:54:33;95418.63;;;23.01;43.30
4590;BME280;2307;48.448;9.216;2023-07-22T10:57:02;95414.47;;;22.86;43.24
4590;BME280;2307;48.448;9.216;2023-07-22T10:59:29;95405.03;;;23.14;42.47
4590;BME280;2307;48.448;9.216;2023-07-22T11:01:59;95406.75;;;23.10;41.85
4590;BME280;2307;48.448;9.216;2023-07-22T11:04:26;95392.72;;;23.31;42.30
4590;BME280;2307;48.448;9.216;2023-07-22T11:06:57;95394.97;;;23.63;41.72
4590;BME280;2307;48.448;9.216;2023-07-22T11:09:36;95389.72;;;23.92;41.61
4590;BME280;2307;48.448;9.216;2023-07-22T11:12:04;95391.47;;;24.14;40.55
4590;BME280;2307;48.448;9.216;2023-07-22T11:14:31;95381.47;;;24.14;39.85
4590;BME280;2307;48.448;9.216;2023-07-22T11:16:58;95382.75;;;24.00;40.03
4590;BME280;2307;48.448;9.216;2023-07-22T11:19:27;95390.63;;;24.48;40.60
4590;BME280;2307;48.448;9.216;2023-07-22T11:21:53;95391.94;;;24.71;38.62
4590;BME280;2307;48.448;9.216;2023-07-22T11:24:20;95380.16;;;24.84;37.34
4590;BME280;2307;48.448;9.216;2023-07-22T11:26:47;95379.53;;;24.87;38.47
4590;BME280;2307;48.448;9.216;2023-07-22T11:29:14;95382.56;;;24.86;39.24
4590;BME280;2307;48.448;9.216;2023-07-22T11:31:41;95374.72;;;24.46;39.71
4590;BME280;2307;48.448;9.216;2023-07-22T11:34:09;95374.16;;;24.23;38.53
4590;BME280;2307;48.448;9.216;2023-07-22T11:36:37;95360.19;;;24.21;40.27
4590;BME280;2307;48.448;9.216;2023-07-22T11:39:03;95363.19;;;24.28;39.31
4590;BME280;2307;48.448;9.216;2023-07-22T11:41:30;95372.59;;;24.69;39.28
4590;BME280;2307;48.448;9.216;2023-07-22T11:43:57;95360.94;;;24.77;37.68
4590;BME280;2307;48.448;9.216;2023-07-22T11:46:24;95360.28;;;24.89;38.01
4590;BME280;2307;48.448;9.216;2023-07-22T11:48:51;95353.78;;;24.81;38.45
4590;BME280;2307;48.448;9.216;2023-07-22T11:51:18;95354.09;;;24.88;37.98
4590;BME280;2307;48.448;9.216;2023-07-22T11:53:47;95358.03;;;24.91;37.76
4590;BME280;2307;48.448;9.216;2023-07-22T11:56:18;95351.91;;;24.81;36.75
4590;BME280;2307;48.448;9.216;2023-07-22T11:58:48;95351.28;;;25.05;35.85
4590;BME280;2307;48.448;9.216;2023-07-22T12:01:14;95340.06;;;25.24;35.88
4590;BME280;2307;48.448;9.216;2023-07-22T12:03:41;95345.41;;;25.53;36.17
4590;BME280;2307;48.448;9.216;2023-07-22T12:06:08;95336.09;;;25.63;36.07
4590;BME280;2307;48.448;9.216;2023-07-22T12:08:35;95334.47;;;25.50;35.67
4590;BME280;2307;48.448;9.216;2023-07-22T12:11:03;95336.72;;;25.18;36.31
4590;BME280;2307;48.448;9.216;2023-07-22T12:13:35;95336.94;;;25.13;36.81
4590;BME280;2307;48.448;9.216;2023-07-22T12:16:01;95335.06;;;25.05;36.67
4590;BME280;2307;48.448;9.216;2023-07-22T12:18:40;95332.25;;;25.22;36.41
4590;BME280;2307;48.448;9.216;2023-07-22T12:21:06;95338.97;;;25.37;35.58
4590;BME280;2307;48.448;9.216;2023-07-22T12:23:34;95338.88;;;25.33;34.47
4590;BME280;2307;48.448;9.216;2023-07-22T12:26:00;95338.22;;;25.57;35.54
4590;BME280;2307;48.448;9.216;2023-07-22T12:28:28;95330.09;;;25.78;34.68
4590;BME280;2307;48.448;9.216;2023-07-22T12:30:55;95326.09;;;25.63;34.24
4590;BME280;2307;48.448;9.216;2023-07-22T12:33:22;95338.69;;;25.59;34.50
4590;BME280;2307;48.448;9.216;2023-07-22T12:35:49;95340.03;;;25.45;34.25
4590;BME280;2307;48.448;9.216;2023-07-22T12:38:15;95332.22;;;25.52;33.77
4590;BME280;2307;48.448;9.216;2023-07-22T12:40:42;95351.16;;;25.52;34.20
4590;BME280;2307;48.448;9.216;2023-07-22T12:43:08;95335.56;;;25.69;34.32
4590;BME280;2307;48.448;9.216;2023-07-22T12:45:36;95324.22;;;25.76;33.78
4590;BME280;2307;48.448;9.216;2023-07-22T12:48:02;95323.06;;;25.98;34.45
4590;BME280;2307;48.448;9.216;2023-07-22T12:50:30;95321.84;;;26.07;34.23
4590;BME280;2307;48.448;9.216;2023-07-22T12:52:56;95324.66;;;26.31;33.14
4590;BME280;2307;48.448;9.216;2023-07-22T12:55:23;95321.97;;;26.44;33.69
4590;BME280;2307;48.448;9.216;2023-07-22T12:57:49;95314.66;;;26.80;33.53
4590;BME280;2307;48.448;9.216;2023-07-22T13:00:16;95323.47;;;26.89;32.83
4590;BME280;2307;48.448;9.216;2023-07-22T13:02:44;95318.38;;;26.76;33.05
4590;BME280;2307;48.448;9.216;2023-07-22T13:05:10;95315.13;;;26.82;33.83
4590;BME280;2307;48.448;9.216;2023-07-22T13:07:36;95314.78;;;26.84;32.63
4590;BME280;2307;48.448;9.216;2023-07-22T13:10:03;95322.41;;;26.58;32.65
4590;BME280;2307;48.448;9.216;2023-07-22T13:12:33;95322.88;;;26.72;31.57
4590;BME280;2307;48.448;9.216;2023-07-22T13:15:00;95308.31;;;27.01;31.66
4590;BME280;2307;48.448;9.216;2023-07-22T13:17:26;95308.75;;;27.15;30.72
4590;BME280;2307;48.448;9.216;2023-07-22T13:19:54;95307.88;;;27.11;31.11